createdAt,value
2023-01-06T00:01:27.516Z,102020.53
2023-01-06T00:03:58.478Z,102020.53
2023-01-06T00:06:28.732Z,101246.34
2023-01-06T00:08:58.526Z,101762.47
2023-01-06T00:11:28.726Z,101246.34
2023-01-06T00:13:57.556Z,101246.34
2023-01-06T00:16:26.194Z,101762.47
2023-01-06T00:18:57.234Z,100730.31
2023-01-06T00:21:26.116Z,99956.41
2023-01-06T00:23:54.747Z,100214.34
2023-01-06T00:26:23.625Z,99956.41
2023-01-06T00:28:56.297Z,99182.69
2023-01-06T00:31:27.672Z,98924.81
2023-01-06T00:33:57.519Z,98666.94
2023-01-06T00:36:26.858Z,98924.81
2023-01-06T00:38:55.407Z,98409.13
2023-01-06T00:41:41.602Z,97377.97
2023-01-06T00:44:11.456Z,95831.81
2023-01-06T00:46:40.359Z,95059.00
2023-01-06T00:49:09.148Z,94286.38
2023-01-06T00:51:41.525Z,92741.59
2023-01-06T00:54:11.996Z,92741.59
2023-01-06T00:56:41.335Z,91197.50
2023-01-06T00:59:13.416Z,90940.22
2023-01-06T01:01:43.586Z,89396.97
2023-01-06T01:04:13.083Z,88111.41
2023-01-06T01:06:44.850Z,87854.38
2023-01-06T01:09:16.208Z,87083.34
2023-01-06T01:12:02.297Z,86055.56
2023-01-06T01:14:32.684Z,85798.66
2023-01-06T01:17:01.364Z,84257.66
2023-01-06T01:19:31.689Z,83230.72
2023-01-06T01:22:02.481Z,82460.72
2023-01-06T01:24:31.421Z,81177.78
2023-01-06T01:27:00.424Z,82204.09
2023-01-06T01:29:28.983Z,80664.72
2023-01-06T01:31:59.513Z,80151.75
2023-01-06T01:34:29.576Z,79638.84
2023-01-06T01:36:59.072Z,78613.28
2023-01-06T01:39:29.466Z,78356.94
2023-01-06T01:41:59.768Z,76050.72
2023-01-06T01:45:10.494Z,73234.09
2023-01-06T01:47:52.467Z,73234.09
2023-01-06T01:50:28.531Z,72978.16
2023-01-06T01:53:04.097Z,70303.94
2023-01-06T01:55:34.197Z,69115.38
2023-01-06T01:58:07.989Z,68350.53
2023-01-06T02:00:37.386Z,67484.06
2023-01-06T02:03:08.367Z,66771.47
2023-01-06T02:05:41.002Z,66440.16
2023-01-06T02:08:17.429Z,66408.25
2023-01-06T02:10:46.183Z,66272.53
2023-01-06T02:13:15.131Z,66468.09
2023-01-06T02:15:44.976Z,66480.09
2023-01-06T02:18:38.537Z,65356.72
2023-01-06T02:21:35.598Z,65534.28
2023-01-06T02:24:46.729Z,65011.59
2023-01-06T02:27:38.655Z,64650.53
2023-01-06T02:30:45.805Z,62519.00
2023-01-06T02:33:25.302Z,63138.97
2023-01-06T02:36:22.080Z,62239.94
2023-01-06T02:39:16.620Z,61803.44
2023-01-06T02:41:49.672Z,61787.50
2023-01-06T02:44:26.015Z,61424.81
2023-01-06T02:47:09.650Z,60311.06
2023-01-06T02:49:48.048Z,60424.63
2023-01-06T02:52:28.046Z,59799.16
2023-01-06T02:55:00.454Z,59763.31
2023-01-06T02:57:38.214Z,59548.19
2023-01-06T03:00:14.771Z,59006.53
2023-01-06T03:02:48.889Z,58624.22
2023-01-06T03:05:19.319Z,58468.91
2023-01-06T03:07:49.137Z,58687.94
2023-01-06T03:10:21.309Z,58347.47
2023-01-06T03:12:54.525Z,58361.41
2023-01-06T03:15:26.428Z,57903.53
2023-01-06T03:17:55.546Z,58062.78
2023-01-06T03:20:25.754Z,57790.06
2023-01-06T03:22:54.758Z,57628.84
2023-01-06T03:25:24.248Z,57262.59
2023-01-06T03:27:53.684Z,57214.84
2023-01-06T03:30:28.382Z,57037.72
2023-01-06T03:33:04.183Z,56751.16
2023-01-06T03:35:55.801Z,56556.13
2023-01-06T03:38:33.619Z,56665.56
2023-01-06T03:41:09.879Z,56705.38
2023-01-06T03:43:44.647Z,56673.53
2023-01-06T03:46:24.301Z,56615.81
2023-01-06T03:49:09.519Z,56504.41
2023-01-06T03:51:54.882Z,56410.88
2023-01-06T03:54:35.515Z,56498.44
2023-01-06T03:57:08.756Z,56613.84
2023-01-06T03:59:42.562Z,56671.53
2023-01-06T04:02:12.614Z,56671.53
2023-01-06T04:04:42.760Z,56741.19
2023-01-06T04:07:14.225Z,56715.31
2023-01-06T04:09:44.244Z,56655.63
2023-01-06T04:12:30.702Z,56737.22
2023-01-06T04:15:00.017Z,56717.31
2023-01-06T04:17:28.598Z,56685.47
2023-01-06T04:19:57.797Z,56781.00
2023-01-06T04:22:28.624Z,56685.47
2023-01-06T04:24:57.716Z,56753.13
2023-01-06T04:27:26.482Z,56595.94
2023-01-06T04:29:55.186Z,56649.66
2023-01-06T04:32:23.994Z,56582.00
2023-01-06T04:34:53.502Z,56578.03
2023-01-06T04:37:21.997Z,56464.59
2023-01-06T04:39:52.084Z,56593.94
2023-01-06T04:42:20.913Z,56595.94
2023-01-06T04:44:49.636Z,56673.53
2023-01-06T04:47:18.280Z,56685.47
2023-01-06T04:49:48.095Z,56681.50
2023-01-06T04:52:17.598Z,56777.00
2023-01-06T04:54:46.462Z,56788.94
2023-01-06T04:57:16.487Z,56798.91
2023-01-06T04:59:44.859Z,56856.63
2023-01-06T05:02:13.522Z,57023.78
2023-01-06T05:04:47.679Z,56962.09
2023-01-06T05:07:16.805Z,56958.09
2023-01-06T05:09:45.480Z,56940.19
2023-01-06T05:12:14.089Z,57055.63
2023-01-06T05:14:44.243Z,57047.66
2023-01-06T05:17:12.753Z,57039.69
2023-01-06T05:19:43.075Z,57075.53
2023-01-06T05:22:12.177Z,57210.84
2023-01-06T05:24:40.899Z,57260.63
2023-01-06T05:27:09.829Z,57413.88
2023-01-06T05:29:38.531Z,57451.69
2023-01-06T05:32:08.352Z,57370.09
2023-01-06T05:34:37.239Z,57326.28
2023-01-06T05:37:05.990Z,57338.22
2023-01-06T05:39:34.852Z,57286.50
2023-01-06T05:42:03.316Z,57111.34
2023-01-06T05:44:32.223Z,57218.81
2023-01-06T05:47:00.792Z,57065.56
2023-01-06T05:49:30.880Z,57103.38
2023-01-06T05:51:59.387Z,57007.84
2023-01-06T05:54:27.962Z,57075.53
2023-01-06T05:56:56.438Z,57117.31
2023-01-06T05:59:25.261Z,57280.50
2023-01-06T06:01:54.393Z,57248.66
2023-01-06T06:04:23.164Z,57300.41
2023-01-06T06:06:53.341Z,57294.44
2023-01-06T06:09:22.984Z,57240.72
2023-01-06T06:11:52.066Z,57242.69
2023-01-06T06:14:20.929Z,57266.59
2023-01-06T06:16:49.882Z,57336.25
2023-01-06T06:19:19.080Z,57453.69
2023-01-06T06:21:48.098Z,57561.16
2023-01-06T06:24:18.285Z,57626.84
2023-01-06T06:26:47.095Z,57447.69
2023-01-06T06:29:15.805Z,57517.38
2023-01-06T06:31:44.804Z,57632.81
2023-01-06T06:34:14.911Z,57620.88
2023-01-06T06:36:44.006Z,57521.34
2023-01-06T06:39:13.097Z,57583.06
2023-01-06T06:41:43.230Z,57557.19
2023-01-06T06:44:11.857Z,57457.66
2023-01-06T06:46:40.881Z,57463.63
2023-01-06T06:49:09.844Z,57310.38
2023-01-06T06:51:38.827Z,57171.06
2023-01-06T06:54:07.457Z,57242.69
2023-01-06T06:56:35.997Z,57244.69
2023-01-06T06:59:06.393Z,57238.72
2023-01-06T07:01:35.147Z,57282.50
2023-01-06T07:04:04.055Z,57035.72
2023-01-06T07:06:33.209Z,57113.34
2023-01-06T07:09:02.159Z,57051.63
2023-01-06T07:11:30.554Z,57075.53
2023-01-06T07:13:59.208Z,57103.38
2023-01-06T07:16:29.419Z,57115.31
2023-01-06T07:18:58.290Z,57236.72
2023-01-06T07:21:27.205Z,57218.81
2023-01-06T07:23:55.794Z,57190.97
2023-01-06T07:26:24.484Z,57252.66
2023-01-06T07:28:53.153Z,57119.31
2023-01-06T07:31:21.825Z,57155.13
2023-01-06T07:33:52.392Z,57171.06
2023-01-06T07:36:21.419Z,57143.19
2023-01-06T07:38:49.993Z,57266.59
2023-01-06T07:41:18.674Z,57310.38
2023-01-06T07:43:47.476Z,57314.34
2023-01-06T07:46:15.949Z,57316.34
2023-01-06T07:48:44.551Z,57395.94
2023-01-06T07:51:14.512Z,57389.97
2023-01-06T07:53:43.239Z,57425.81
2023-01-06T07:56:11.962Z,57395.94
2023-01-06T07:58:40.499Z,57459.66
2023-01-06T08:01:10.129Z,57501.44
2023-01-06T08:03:38.770Z,57591.00
2023-01-06T08:06:09.108Z,57666.66
2023-01-06T08:08:41.131Z,57959.28
2023-01-06T08:11:13.405Z,58166.31
2023-01-06T08:13:42.175Z,58232.00
2023-01-06T08:16:12.320Z,58245.94
2023-01-06T08:18:41.425Z,58313.63
2023-01-06T08:21:11.343Z,58568.47
2023-01-06T08:23:41.629Z,58664.03
2023-01-06T08:26:13.510Z,58849.22
2023-01-06T08:28:42.597Z,59153.88
2023-01-06T08:31:12.158Z,59922.66
2023-01-06T08:33:42.421Z,60713.50
2023-01-06T08:36:15.632Z,62022.69
2023-01-06T08:38:46.388Z,63593.56
2023-01-06T08:41:15.362Z,66130.84
2023-01-06T08:43:46.252Z,68698.00
2023-01-06T08:46:17.842Z,73490.06
2023-01-06T08:48:46.519Z,77588.03
2023-01-06T08:51:17.232Z,80408.22
2023-01-06T08:53:47.808Z,82460.72
2023-01-06T08:56:18.252Z,85541.78
2023-01-06T08:58:47.159Z,87597.34
2023-01-06T09:01:19.858Z,88882.69
2023-01-06T09:03:48.653Z,90940.22
2023-01-06T09:06:18.290Z,92484.19
2023-01-06T09:08:49.682Z,94543.91
2023-01-06T09:11:19.016Z,95059.00
2023-01-06T09:13:47.748Z,95574.19
2023-01-06T09:16:16.444Z,96862.50
2023-01-06T09:18:49.773Z,98151.31
2023-01-06T09:21:19.924Z,99182.69
2023-01-06T09:23:50.571Z,99182.69
2023-01-06T09:26:21.773Z,99956.41
2023-01-06T09:28:50.263Z,100730.31
2023-01-06T09:31:19.277Z,101762.47
2023-01-06T09:33:47.929Z,102278.66
2023-01-06T09:36:16.509Z,102536.75
2023-01-06T09:38:45.065Z,103053.06
2023-01-06T09:41:35.410Z,103827.66
2023-01-06T09:44:11.175Z,104602.44
2023-01-06T09:46:47.065Z,104344.16
2023-01-06T09:49:27.594Z,104344.16
2023-01-06T09:52:00.594Z,104085.91
2023-01-06T09:54:34.377Z,104085.91
2023-01-06T09:57:07.898Z,103311.25
2023-01-06T09:59:44.634Z,102794.91
2023-01-06T10:02:18.410Z,102278.66
2023-01-06T10:04:46.952Z,101762.47
2023-01-06T10:07:25.048Z,101504.38
2023-01-06T10:10:07.152Z,100730.31
2023-01-06T10:12:51.651Z,99956.41
2023-01-06T10:15:27.829Z,99440.56
2023-01-06T10:18:14.396Z,99440.56
2023-01-06T10:20:53.614Z,98409.13
2023-01-06T10:23:40.953Z,98409.13
2023-01-06T10:26:14.366Z,97635.72
2023-01-06T10:28:48.183Z,97120.22
2023-01-06T10:31:20.446Z,96347.13
2023-01-06T10:33:52.010Z,96089.47
2023-01-06T10:36:32.184Z,95831.81
2023-01-06T10:39:07.158Z,94801.44
2023-01-06T10:41:44.484Z,95316.59
2023-01-06T10:44:15.477Z,94801.44
2023-01-06T10:46:45.517Z,94286.38
2023-01-06T10:49:17.242Z,92484.19
2023-01-06T10:51:51.809Z,92226.81
2023-01-06T10:54:25.893Z,91969.47
2023-01-06T10:56:57.538Z,90168.50
2023-01-06T10:59:27.647Z,88882.69
2023-01-06T11:01:59.132Z,88625.56
2023-01-06T11:04:29.378Z,87340.31
2023-01-06T11:07:00.436Z,85541.78
2023-01-06T11:09:33.416Z,85284.91
2023-01-06T11:12:04.512Z,85284.91
2023-01-06T11:14:34.996Z,85284.91
2023-01-06T11:17:05.853Z,81690.91
2023-01-06T11:19:39.587Z,79126.03
2023-01-06T11:22:33.890Z,77075.53
2023-01-06T11:25:03.172Z,75282.31
2023-01-06T11:27:31.841Z,73490.06
2023-01-06T11:30:22.425Z,68198.78
2023-01-06T11:32:51.508Z,68324.59
2023-01-06T11:35:22.455Z,67627.78
2023-01-06T11:37:58.997Z,66055.03
2023-01-06T11:40:32.169Z,65400.59
2023-01-06T11:43:07.856Z,64161.91
2023-01-06T11:45:40.293Z,64068.19
2023-01-06T11:48:17.583Z,64768.22
2023-01-06T11:50:54.378Z,64475.03
2023-01-06T11:53:24.658Z,64594.69
2023-01-06T11:55:58.911Z,62473.16
2023-01-06T11:58:53.336Z,59715.50
2023-01-06T12:01:33.481Z,59779.25
2023-01-06T12:04:12.917Z,59761.31
2023-01-06T12:06:43.971Z,59209.66
2023-01-06T12:09:19.605Z,58532.63
2023-01-06T12:11:51.276Z,57969.22
2023-01-06T12:14:28.807Z,58054.81
2023-01-06T12:17:08.103Z,58015.00
2023-01-06T12:19:44.241Z,58138.44
2023-01-06T12:22:24.072Z,58405.22
2023-01-06T12:24:53.994Z,58652.09
2023-01-06T12:27:33.110Z,58646.13
2023-01-06T12:30:05.101Z,59098.13
2023-01-06T12:32:40.453Z,59259.44
2023-01-06T12:35:15.526Z,58791.47
2023-01-06T12:37:49.641Z,58749.66
2023-01-06T12:40:26.008Z,58765.59
2023-01-06T12:43:00.933Z,58723.78
2023-01-06T12:45:41.125Z,58379.31
2023-01-06T12:48:22.561Z,57473.56
2023-01-06T12:50:58.120Z,57131.25
2023-01-06T12:53:29.973Z,57326.28
2023-01-06T12:56:20.192Z,57051.63
2023-01-06T12:58:59.498Z,57252.66
2023-01-06T13:01:36.866Z,57511.41
2023-01-06T13:04:31.990Z,57648.75
2023-01-06T13:07:12.944Z,57764.19
2023-01-06T13:09:55.794Z,57903.53
2023-01-06T13:12:40.519Z,58134.44
2023-01-06T13:15:18.374Z,58530.63
2023-01-06T13:17:54.240Z,58777.53
2023-01-06T13:20:29.402Z,58980.63
2023-01-06T13:23:11.757Z,59460.56
2023-01-06T13:26:24.824Z,59934.59
2023-01-06T13:29:05.324Z,60524.22
2023-01-06T13:31:53.088Z,60675.63
2023-01-06T13:34:52.943Z,61177.72
2023-01-06T13:37:34.949Z,62166.19
2023-01-06T13:40:09.729Z,63182.84
2023-01-06T13:42:43.069Z,64018.31
2023-01-06T13:45:42.917Z,64903.88
2023-01-06T13:48:18.431Z,66132.84
2023-01-06T13:50:47.230Z,67703.66
2023-01-06T13:53:19.895Z,68142.88
2023-01-06T13:55:48.794Z,69337.09
2023-01-06T13:58:37.774Z,69938.34
2023-01-06T14:01:08.440Z,70637.59
2023-01-06T14:03:38.638Z,71698.75
2023-01-06T14:06:12.387Z,71442.94
2023-01-06T14:08:54.185Z,71698.75
2023-01-06T14:11:28.225Z,72722.25
2023-01-06T14:13:59.229Z,72466.34
2023-01-06T14:16:44.390Z,74258.06
2023-01-06T14:19:18.843Z,73234.09
2023-01-06T14:21:49.234Z,72722.25
2023-01-06T14:24:28.945Z,72978.16
2023-01-06T14:27:01.382Z,73490.06
2023-01-06T14:30:03.919Z,74514.09
2023-01-06T14:33:12.820Z,76563.09
2023-01-06T14:35:46.355Z,77331.78
2023-01-06T14:38:26.237Z,78356.94
2023-01-06T14:41:00.195Z,79382.44
2023-01-06T14:43:34.545Z,79638.84
2023-01-06T14:46:10.982Z,80664.72
2023-01-06T14:48:46.588Z,80921.25
2023-01-06T14:51:22.219Z,81434.31
2023-01-06T14:53:57.912Z,82717.38
2023-01-06T14:56:31.122Z,83230.72
2023-01-06T14:59:11.687Z,84257.66
2023-01-06T15:01:43.276Z,85028.06
2023-01-06T15:04:24.743Z,86312.47
2023-01-06T15:07:17.043Z,87340.31
2023-01-06T15:09:45.888Z,87854.38
2023-01-06T15:12:26.991Z,90168.50
2023-01-06T15:14:56.121Z,91454.81
2023-01-06T15:17:25.207Z,92226.81
2023-01-06T15:19:55.092Z,94028.84
2023-01-06T15:22:26.256Z,94286.38
2023-01-06T15:24:56.645Z,95574.19
2023-01-06T15:27:26.775Z,95831.81
2023-01-06T15:29:57.042Z,96347.13
2023-01-06T15:32:28.151Z,98151.31
2023-01-06T15:34:59.585Z,98151.31
2023-01-06T15:37:34.964Z,99182.69
2023-01-06T15:40:06.115Z,100730.31
2023-01-06T15:42:36.912Z,100988.31
2023-01-06T15:45:07.808Z,101762.47
2023-01-06T15:47:40.872Z,102536.75
2023-01-06T15:50:17.673Z,102278.66
2023-01-06T15:52:48.394Z,102278.66
2023-01-06T15:55:25.964Z,102020.53
2023-01-06T15:58:00.906Z,102536.75
2023-01-06T16:00:32.401Z,103053.06
2023-01-06T16:03:01.295Z,103569.44
2023-01-06T16:05:35.608Z,104344.16
2023-01-06T16:08:06.115Z,104602.44
2023-01-06T16:10:38.553Z,104602.44
2023-01-06T16:13:25.872Z,104602.44
2023-01-06T16:15:59.846Z,105119.03
2023-01-06T16:18:31.426Z,105635.72
2023-01-06T16:21:01.898Z,105635.72
2023-01-06T16:23:34.736Z,105635.72
2023-01-06T16:26:09.746Z,105635.72
2023-01-06T16:28:44.054Z,105377.34
2023-01-06T16:31:14.357Z,105377.34
2023-01-06T16:33:46.016Z,105119.03
2023-01-06T16:36:17.175Z,104602.44
2023-01-06T16:38:45.852Z,104344.16
2023-01-06T16:41:18.118Z,104602.44
2023-01-06T16:43:48.325Z,104602.44
2023-01-06T16:46:22.544Z,104344.16
2023-01-06T16:48:53.413Z,104860.72
2023-01-06T16:51:22.770Z,104602.44
2023-01-06T16:53:51.368Z,105377.34
2023-01-06T16:56:22.749Z,106410.88
2023-01-06T16:58:53.477Z,106410.88
2023-01-06T17:01:23.699Z,106410.88
2023-01-06T17:03:56.389Z,106927.75
2023-01-06T17:06:27.605Z,106927.75
2023-01-06T17:09:00.770Z,107186.22
2023-01-06T17:11:33.464Z,107186.22
2023-01-06T17:14:10.259Z,107186.22
2023-01-06T17:16:42.782Z,107186.22
2023-01-06T17:19:20.714Z,106927.75
2023-01-06T17:21:52.406Z,106669.31
2023-01-06T17:24:24.027Z,106410.88
2023-01-06T17:26:54.551Z,106152.47
2023-01-06T17:29:24.983Z,105894.09
2023-01-06T17:31:56.765Z,105635.72
2023-01-06T17:34:31.827Z,105894.09
2023-01-06T17:37:08.059Z,106152.47
2023-01-06T17:39:40.212Z,106152.47
2023-01-06T17:42:26.717Z,106152.47
2023-01-06T17:44:58.587Z,106152.47
2023-01-06T17:47:30.276Z,106152.47
2023-01-06T17:50:00.363Z,106152.47
2023-01-06T17:52:33.563Z,105894.09
2023-01-06T17:55:32.574Z,105635.72
2023-01-06T17:58:01.253Z,105377.34
2023-01-06T18:00:36.407Z,105377.34
2023-01-06T18:03:07.425Z,105377.34
2023-01-06T18:06:10.089Z,105377.34
2023-01-06T18:08:39.670Z,105377.34
2023-01-06T18:11:24.440Z,105635.72
2023-01-06T18:13:54.611Z,105377.34
2023-01-06T18:16:35.479Z,105635.72
2023-01-06T18:19:18.134Z,105377.34
2023-01-06T18:21:46.834Z,105119.03
2023-01-06T18:24:20.099Z,105377.34
2023-01-06T18:26:51.911Z,105119.03
2023-01-06T18:29:23.848Z,105119.03
2023-01-06T18:31:55.248Z,104860.72
2023-01-06T18:34:40.025Z,104602.44
2023-01-06T18:37:11.329Z,104602.44
2023-01-06T18:39:44.009Z,104602.44
2023-01-06T18:42:25.937Z,104085.91
2023-01-06T18:45:03.808Z,104344.16
2023-01-06T18:47:38.133Z,103569.44
2023-01-06T18:50:24.751Z,103311.25
2023-01-06T18:52:55.042Z,102536.75
2023-01-06T18:55:32.605Z,102536.75
2023-01-06T18:58:04.487Z,102020.53
2023-01-06T19:00:38.422Z,101504.38
2023-01-06T19:03:33.350Z,101504.38
2023-01-06T19:06:32.573Z,101762.47
2023-01-06T19:09:03.298Z,102536.75
2023-01-06T19:11:34.116Z,103569.44
2023-01-06T19:14:07.446Z,103569.44
2023-01-06T19:16:39.284Z,104085.91
2023-01-06T19:19:32.281Z,104860.72
2023-01-06T19:22:17.458Z,105894.09
2023-01-06T19:24:49.860Z,106152.47
2023-01-06T19:27:43.838Z,106927.75
2023-01-06T19:30:36.257Z,107961.72
2023-01-06T19:33:19.772Z,107703.22
2023-01-06T19:35:50.009Z,107961.72
2023-01-06T19:38:27.440Z,108220.28
2023-01-06T19:40:58.502Z,108737.41
2023-01-06T19:43:29.505Z,109254.63
2023-01-06T19:45:58.355Z,109513.28
2023-01-06T19:48:30.655Z,109771.94
2023-01-06T19:51:17.846Z,109254.63
2023-01-06T19:53:47.768Z,109513.28
2023-01-06T19:56:20.190Z,109513.28
2023-01-06T19:58:53.829Z,109771.94
2023-01-06T20:01:23.682Z,109771.94
2023-01-06T20:03:54.879Z,109771.94
2023-01-06T20:06:25.315Z,110030.59
2023-01-06T20:08:54.700Z,110030.59
2023-01-06T20:11:24.868Z,110289.28
2023-01-06T20:13:53.720Z,110289.28
2023-01-06T20:16:22.344Z,110289.28
2023-01-06T20:18:51.030Z,110289.28
2023-01-06T20:21:19.614Z,110030.59
2023-01-06T20:23:49.695Z,110030.59
2023-01-06T20:26:18.244Z,109771.94
2023-01-06T20:28:46.974Z,109771.94
2023-01-06T20:31:15.769Z,109513.28
2023-01-06T20:33:47.530Z,109254.63
2023-01-06T20:36:17.398Z,109254.63
2023-01-06T20:38:46.553Z,108996.00
2023-01-06T20:41:16.779Z,108478.84
2023-01-06T20:43:45.498Z,107703.22
2023-01-06T20:46:14.840Z,107444.69
2023-01-06T20:48:44.331Z,106927.75
2023-01-06T20:51:13.009Z,106669.31
2023-01-06T20:53:41.637Z,106410.88
2023-01-06T20:56:10.387Z,106152.47
2023-01-06T20:58:40.525Z,106410.88
2023-01-06T21:01:09.345Z,106410.88
2023-01-06T21:03:38.375Z,106410.88
2023-01-06T21:06:07.770Z,106152.47
2023-01-06T21:08:36.838Z,106152.47
2023-01-06T21:11:05.564Z,106410.88
2023-01-06T21:13:34.192Z,105894.09
2023-01-06T21:16:04.604Z,105119.03
2023-01-06T21:18:34.806Z,104860.72
2023-01-06T21:21:03.803Z,104860.72
2023-01-06T21:23:32.723Z,104344.16
2023-01-06T21:26:01.285Z,104602.44
2023-01-06T21:28:30.225Z,104344.16
2023-01-06T21:30:58.894Z,103311.25
2023-01-06T21:33:29.225Z,103569.44
2023-01-06T21:35:57.902Z,103311.25
2023-01-06T21:38:26.970Z,103053.06
2023-01-06T21:41:15.908Z,102794.91
2023-01-06T21:43:43.619Z,102536.75
2023-01-06T21:46:12.198Z,101762.47
2023-01-06T21:48:42.166Z,101504.38
2023-01-06T21:51:10.913Z,100988.31
2023-01-06T21:53:39.900Z,100730.31
2023-01-06T21:56:09.396Z,99698.47
2023-01-06T21:58:38.482Z,99440.56
2023-01-06T22:01:07.828Z,99182.69
2023-01-06T22:03:36.495Z,97377.97
2023-01-06T22:06:07.171Z,96604.81
2023-01-06T22:08:36.300Z,96862.50
2023-01-06T22:11:05.277Z,96347.13
2023-01-06T22:13:34.755Z,96347.13
2023-01-06T22:16:03.559Z,96089.47
2023-01-06T22:18:34.291Z,95316.59
2023-01-06T22:21:05.400Z,95316.59
2023-01-06T22:23:35.142Z,94543.91
2023-01-06T22:26:03.812Z,93771.38
2023-01-06T22:28:32.516Z,93513.91
2023-01-06T22:31:01.257Z,92999.00
2023-01-06T22:33:30.251Z,92741.59
2023-01-06T22:36:00.983Z,92999.00
2023-01-06T22:38:31.185Z,93513.91
2023-01-06T22:40:59.911Z,93256.44
2023-01-06T22:43:28.381Z,93513.91
2023-01-06T22:45:57.907Z,92999.00
2023-01-06T22:48:27.054Z,92741.59
2023-01-06T22:50:59.565Z,92484.19
2023-01-06T22:53:28.370Z,92484.19
2023-01-06T22:55:59.423Z,92484.19
2023-01-06T22:58:28.456Z,92226.81
2023-01-06T23:00:57.268Z,91969.47
2023-01-06T23:03:26.426Z,92226.81
2023-01-06T23:05:58.855Z,91969.47
2023-01-06T23:08:28.299Z,91969.47
2023-01-06T23:11:03.726Z,92226.81
2023-01-06T23:13:33.854Z,91969.47
2023-01-06T23:16:07.545Z,92226.81
2023-01-06T23:18:37.801Z,91712.13
2023-01-06T23:21:08.375Z,91969.47
2023-01-06T23:23:38.595Z,92741.59
2023-01-06T23:26:10.800Z,92999.00
2023-01-06T23:28:40.830Z,93256.44
2023-01-06T23:31:11.521Z,93771.38
2023-01-06T23:33:40.774Z,92741.59
2023-01-06T23:36:11.133Z,92741.59
2023-01-06T23:38:40.231Z,92999.00
2023-01-06T23:41:13.008Z,92484.19
2023-01-06T23:43:41.663Z,92484.19
2023-01-06T23:46:13.102Z,93256.44
2023-01-06T23:48:42.423Z,92741.59
2023-01-06T23:51:12.318Z,93513.91
2023-01-06T23:53:41.472Z,93513.91
2023-01-06T23:56:14.058Z,93771.38
2023-01-06T23:58:44.672Z,93513.91
